sensor_id;sensor_type;location;lat;lon;timestamp;temperature;humidity
40589;DHT22;26297;49.450;6.640;2023-09-12T00:01:11;21.60;99.90
40589;DHT22;26297;49.450;6.640;2023-09-12T00:04:14;21.60;99.90
40589;DHT22;26297;49.450;6.640;2023-09-12T00:07:24;21.50;99.90
40589;DHT22;26297;49.450;6.640;2023-09-12T00:10:32;21.50;99.90
40589;DHT22;26297;49.450;6.640;2023-09-12T00:13:38;21.50;99.90
40589;DHT22;26297;49.450;6.640;2023-09-12T00:16:49;21.50;99.90
40589;DHT22;26297;49.450;6.640;2023-09-12T00:19:58;21.50;99.90
40589;DHT22;26297;49.450;6.640;2023-09-12T00:23:09;21.50;99.90
40589;DHT22;26297;49.450;6.640;2023-09-12T00:26:33;21.50;99.90
40589;DHT22;26297;49.450;6.640;2023-09-12T00:29:47;21.50;99.90
40589;DHT22;26297;49.450;6.640;2023-09-12T00:33:12;21.40;99.90
40589;DHT22;26297;49.450;6.640;2023-09-12T00:36:36;21.40;99.90
40589;DHT22;26297;49.450;6.640;2023-09-12T00:39:42;21.50;99.90
40589;DHT22;26297;49.450;6.640;2023-09-12T00:43:03;21.40;99.90
40589;DHT22;26297;49.450;6.640;2023-09-12T00:46:18;21.40;99.90
40589;DHT22;26297;49.450;6.640;2023-09-12T00:49:21;21.50;99.90
40589;DHT22;26297;49.450;6.640;2023-09-12T00:52:37;21.40;99.90
40589;DHT22;26297;49.450;6.640;2023-09-12T00:55:51;21.40;99.90
40589;DHT22;26297;49.450;6.640;2023-09-12T00:59:04;21.50;99.90
40589;DHT22;26297;49.450;6.640;2023-09-12T01:02:08;21.40;99.90
40589;DHT22;26297;49.450;6.640;2023-09-12T01:05:37;21.40;99.90
40589;DHT22;26297;49.450;6.640;2023-09-12T01:08:47;21.30;99.90
40589;DHT22;26297;49.450;6.640;2023-09-12T01:11:53;21.30;99.90
40589;DHT22;26297;49.450;6.640;2023-09-12T01:14:56;21.20;99.90
40589;DHT22;26297;49.450;6.640;2023-09-12T01:18:28;21.20;99.90
40589;DHT22;26297;49.450;6.640;2023-09-12T01:28:52;21.20;99.90
40589;DHT22;26297;49.450;6.640;2023-09-12T01:32:06;21.10;99.90
40589;DHT22;26297;49.450;6.640;2023-09-12T01:35:12;21.10;99.90
40589;DHT22;26297;49.450;6.640;2023-09-12T01:38:15;21.10;99.90
40589;DHT22;26297;49.450;6.640;2023-09-12T01:41:21;21.10;99.90
40589;DHT22;26297;49.450;6.640;2023-09-12T01:44:25;21.10;99.90
40589;DHT22;26297;49.450;6.640;2023-09-12T01:47:36;21.10;99.90
40589;DHT22;26297;49.450;6.640;2023-09-12T01:51:07;21.10;99.90
40589;DHT22;26297;49.450;6.640;2023-09-12T01:54:20;21.10;99.90
40589;DHT22;26297;49.450;6.640;2023-09-12T01:57:30;21.10;99.90
40589;DHT22;26297;49.450;6.640;2023-09-12T02:00:36;21.00;99.90
40589;DHT22;26297;49.450;6.640;2023-09-12T02:03:48;21.10;99.90
40589;DHT22;26297;49.450;6.640;2023-09-12T02:07:08;21.00;99.90
40589;DHT22;26297;49.450;6.640;2023-09-12T02:10:21;21.00;99.90
40589;DHT22;26297;49.450;6.640;2023-09-12T02:13:31;21.00;99.90
40589;DHT22;26297;49.450;6.640;2023-09-12T02:16:53;21.00;99.90
40589;DHT22;26297;49.450;6.640;2023-09-12T02:20:02;21.00;99.90
40589;DHT22;26297;49.450;6.640;2023-09-12T02:23:09;21.00;99.90
40589;DHT22;26297;49.450;6.640;2023-09-12T02:26:19;20.90;99.90
40589;DHT22;26297;49.450;6.640;2023-09-12T02:29:26;20.90;99.90
40589;DHT22;26297;49.450;6.640;2023-09-12T02:32:44;20.90;99.90
40589;DHT22;26297;49.450;6.640;2023-09-12T02:35:59;20.90;99.90
40589;DHT22;26297;49.450;6.640;2023-09-12T02:39:04;20.90;99.90
40589;DHT22;26297;49.450;6.640;2023-09-12T02:42:08;20.90;99.90
40589;DHT22;26297;49.450;6.640;2023-09-12T02:45:21;20.90;99.90
40589;DHT22;26297;49.450;6.640;2023-09-12T02:48:27;20.90;99.90
40589;DHT22;26297;49.450;6.640;2023-09-12T02:51:39;20.90;99.90
40589;DHT22;26297;49.450;6.640;2023-09-12T02:54:43;20.90;99.90
40589;DHT22;26297;49.450;6.640;2023-09-12T02:57:56;20.90;99.90
40589;DHT22;26297;49.450;6.640;2023-09-12T03:01:22;20.90;99.90
40589;DHT22;26297;49.450;6.640;2023-09-12T03:04:35;20.90;99.90
40589;DHT22;26297;49.450;6.640;2023-09-12T03:07:42;20.90;99.90
40589;DHT22;26297;49.450;6.640;2023-09-12T03:10:58;20.80;99.90
40589;DHT22;26297;49.450;6.640;2023-09-12T03:14:24;20.80;99.90
40589;DHT22;26297;49.450;6.640;2023-09-12T03:17:33;20.80;99.90
40589;DHT22;26297;49.450;6.640;2023-09-12T03:20:43;20.80;99.90
40589;DHT22;26297;49.450;6.640;2023-09-12T03:24:04;20.80;99.90
40589;DHT22;26297;49.450;6.640;2023-09-12T03:27:10;20.80;99.90
40589;DHT22;26297;49.450;6.640;2023-09-12T03:30:16;20.90;99.90
40589;DHT22;26297;49.450;6.640;2023-09-12T03:33:19;20.90;99.90
40589;DHT22;26297;49.450;6.640;2023-09-12T03:36:23;20.90;99.90
40589;DHT22;26297;49.450;6.640;2023-09-12T03:39:26;21.00;99.90
40589;DHT22;26297;49.450;6.640;2023-09-12T03:42:29;21.00;99.90
40589;DHT22;26297;49.450;6.640;2023-09-12T03:45:40;21.00;99.90
40589;DHT22;26297;49.450;6.640;2023-09-12T03:48:49;21.10;99.90
40589;DHT22;26297;49.450;6.640;2023-09-12T03:52:10;21.00;99.90
40589;DHT22;26297;49.450;6.640;2023-09-12T03:55:34;20.90;99.90
40589;DHT22;26297;49.450;6.640;2023-09-12T03:59:07;20.80;99.90
40589;DHT22;26297;49.450;6.640;2023-09-12T04:02:16;20.80;99.90
40589;DHT22;26297;49.450;6.640;2023-09-12T04:05:30;20.80;99.90
40589;DHT22;26297;49.450;6.640;2023-09-12T04:08:44;20.80;99.90
40589;DHT22;26297;49.450;6.640;2023-09-12T04:12:04;20.80;99.90
40589;DHT22;26297;49.450;6.640;2023-09-12T04:15:14;20.70;99.90
40589;DHT22;26297;49.450;6.640;2023-09-12T04:18:20;20.80;99.90
40589;DHT22;26297;49.450;6.640;2023-09-12T04:21:24;20.80;99.90
40589;DHT22;26297;49.450;6.640;2023-09-12T04:24:32;20.70;99.90
40589;DHT22;26297;49.450;6.640;2023-09-12T04:27:36;20.70;99.90
40589;DHT22;26297;49.450;6.640;2023-09-12T04:31:01;20.70;99.90
40589;DHT22;26297;49.450;6.640;2023-09-12T04:34:04;20.70;99.90
40589;DHT22;26297;49.450;6.640;2023-09-12T04:37:08;20.80;99.90
40589;DHT22;26297;49.450;6.640;2023-09-12T04:40:20;20.80;99.90
40589;DHT22;26297;49.450;6.640;2023-09-12T04:43:29;20.90;99.90
40589;DHT22;26297;49.450;6.640;2023-09-12T04:46:35;20.60;99.90
40589;DHT22;26297;49.450;6.640;2023-09-12T04:49:41;20.60;99.90
40589;DHT22;26297;49.450;6.640;2023-09-12T04:52:44;20.60;99.90
40589;DHT22;26297;49.450;6.640;2023-09-12T04:55:47;20.50;99.90
40589;DHT22;26297;49.450;6.640;2023-09-12T04:58:50;20.50;99.90
40589;DHT22;26297;49.450;6.640;2023-09-12T05:01:54;20.50;99.90
40589;DHT22;26297;49.450;6.640;2023-09-12T05:04:57;20.60;99.90
40589;DHT22;26297;49.450;6.640;2023-09-12T05:08:02;20.60;99.90
40589;DHT22;26297;49.450;6.640;2023-09-12T05:11:06;20.70;99.90
40589;DHT22;26297;49.450;6.640;2023-09-12T05:14:10;20.70;99.90
40589;DHT22;26297;49.450;6.640;2023-09-12T05:17:13;20.60;99.90
40589;DHT22;26297;49.450;6.640;2023-09-12T05:20:16;20.60;99.90
40589;DHT22;26297;49.450;6.640;2023-09-12T05:23:19;20.50;99.90
40589;DHT22;26297;49.450;6.640;2023-09-12T05:26:22;20.50;99.90
40589;DHT22;26297;49.450;6.640;2023-09-12T05:29:25;20.50;99.90
40589;DHT22;26297;49.450;6.640;2023-09-12T05:32:28;20.50;99.90
40589;DHT22;26297;49.450;6.640;2023-09-12T05:35:31;20.60;99.90
40589;DHT22;26297;49.450;6.640;2023-09-12T05:38:35;20.60;99.90
40589;DHT22;26297;49.450;6.640;2023-09-12T05:41:38;20.50;99.90
40589;DHT22;26297;49.450;6.640;2023-09-12T05:44:41;20.50;99.90
40589;DHT22;26297;49.450;6.640;2023-09-12T05:47:45;20.40;99.90
40589;DHT22;26297;49.450;6.640;2023-09-12T05:50:48;20.40;99.90
40589;DHT22;26297;49.450;6.640;2023-09-12T05:53:51;20.40;99.90
40589;DHT22;26297;49.450;6.640;2023-09-12T05:56:55;20.40;99.90
40589;DHT22;26297;49.450;6.640;2023-09-12T06:00:01;20.30;99.90
40589;DHT22;26297;49.450;6.640;2023-09-12T06:03:04;20.30;99.90
40589;DHT22;26297;49.450;6.640;2023-09-12T06:06:07;20.30;99.90
40589;DHT22;26297;49.450;6.640;2023-09-12T06:09:11;20.50;99.90
40589;DHT22;26297;49.450;6.640;2023-09-12T06:12:14;20.60;99.90
40589;DHT22;26297;49.450;6.640;2023-09-12T06:15:17;20.70;99.90
40589;DHT22;26297;49.450;6.640;2023-09-12T06:18:20;20.70;99.90
40589;DHT22;26297;49.450;6.640;2023-09-12T06:21:23;20.70;99.90
40589;DHT22;26297;49.450;6.640;2023-09-12T06:24:29;20.70;99.90
40589;DHT22;26297;49.450;6.640;2023-09-12T06:27:32;20.80;99.90
40589;DHT22;26297;49.450;6.640;2023-09-12T06:30:36;20.80;99.90
40589;DHT22;26297;49.450;6.640;2023-09-12T06:33:39;20.80;99.90
40589;DHT22;26297;49.450;6.640;2023-09-12T06:36:42;20.90;99.90
40589;DHT22;26297;49.450;6.640;2023-09-12T06:39:51;20.90;99.90
40589;DHT22;26297;49.450;6.640;2023-09-12T06:42:57;20.90;99.90
40589;DHT22;26297;49.450;6.640;2023-09-12T06:46:00;20.90;99.90
40589;DHT22;26297;49.450;6.640;2023-09-12T06:49:03;20.90;99.90
40589;DHT22;26297;49.450;6.640;2023-09-12T06:52:06;20.90;99.90
40589;DHT22;26297;49.450;6.640;2023-09-12T06:55:13;20.90;99.90
40589;DHT22;26297;49.450;6.640;2023-09-12T06:58:19;20.80;99.90
40589;DHT22;26297;49.450;6.640;2023-09-12T07:01:28;21.00;99.90
40589;DHT22;26297;49.450;6.640;2023-09-12T07:04:43;21.00;99.90
40589;DHT22;26297;49.450;6.640;2023-09-12T07:07:46;21.00;99.90
40589;DHT22;26297;49.450;6.640;2023-09-12T07:10:49;21.10;99.90
40589;DHT22;26297;49.450;6.640;2023-09-12T07:13:52;21.10;99.90
40589;DHT22;26297;49.450;6.640;2023-09-12T07:16:56;21.10;99.90
40589;DHT22;26297;49.450;6.640;2023-09-12T07:20:06;21.10;99.90
40589;DHT22;26297;49.450;6.640;2023-09-12T07:23:14;21.10;99.90
40589;DHT22;26297;49.450;6.640;2023-09-12T07:26:17;21.10;99.90
40589;DHT22;26297;49.450;6.640;2023-09-12T07:29:26;21.10;99.90
40589;DHT22;26297;49.450;6.640;2023-09-12T07:36:05;21.20;99.90
40589;DHT22;26297;49.450;6.640;2023-09-12T07:39:15;21.20;99.90
40589;DHT22;26297;49.450;6.640;2023-09-12T07:42:20;21.20;99.90
40589;DHT22;26297;49.450;6.640;2023-09-12T07:45:24;21.30;99.90
40589;DHT22;26297;49.450;6.640;2023-09-12T07:48:27;21.30;99.90
40589;DHT22;26297;49.450;6.640;2023-09-12T07:51:31;21.30;99.90
40589;DHT22;26297;49.450;6.640;2023-09-12T07:54:34;21.30;99.90
40589;DHT22;26297;49.450;6.640;2023-09-12T07:57:37;21.40;99.90
40589;DHT22;26297;49.450;6.640;2023-09-12T08:00:40;21.30;99.90
40589;DHT22;26297;49.450;6.640;2023-09-12T08:03:43;21.30;99.90
40589;DHT22;26297;49.450;6.640;2023-09-12T08:06:46;21.30;99.90
40589;DHT22;26297;49.450;6.640;2023-09-12T08:09:51;21.30;99.90
40589;DHT22;26297;49.450;6.640;2023-09-12T08:12:57;21.30;99.90
40589;DHT22;26297;49.450;6.640;2023-09-12T08:16:00;21.40;99.90
40589;DHT22;26297;49.450;6.640;2023-09-12T08:19:03;21.40;99.90
40589;DHT22;26297;49.450;6.640;2023-09-12T08:22:07;21.40;99.90
40589;DHT22;26297;49.450;6.640;2023-09-12T08:25:13;21.40;99.90
40589;DHT22;26297;49.450;6.640;2023-09-12T08:28:24;21.40;99.90
40589;DHT22;26297;49.450;6.640;2023-09-12T08:31:30;21.50;99.90
40589;DHT22;26297;49.450;6.640;2023-09-12T08:34:33;21.40;99.90
40589;DHT22;26297;49.450;6.640;2023-09-12T08:37:36;21.50;99.90
40589;DHT22;26297;49.450;6.640;2023-09-12T08:40:39;21.50;99.90
40589;DHT22;26297;49.450;6.640;2023-09-12T08:43:43;21.50;99.90
40589;DHT22;26297;49.450;6.640;2023-09-12T08:46:46;21.50;99.90
40589;DHT22;26297;49.450;6.640;2023-09-12T08:49:50;21.50;99.90
40589;DHT22;26297;49.450;6.640;2023-09-12T08:52:56;21.50;99.90
40589;DHT22;26297;49.450;6.640;2023-09-12T08:55:59;21.50;99.90
40589;DHT22;26297;49.450;6.640;2023-09-12T08:59:04;21.50;99.90
40589;DHT22;26297;49.450;6.640;2023-09-12T09:02:07;21.50;99.90
40589;DHT22;26297;49.450;6.640;2023-09-12T09:05:15;21.50;99.90
40589;DHT22;26297;49.450;6.640;2023-09-12T09:08:20;21.50;99.90
40589;DHT22;26297;49.450;6.640;2023-09-12T09:11:23;21.50;99.90
40589;DHT22;26297;49.450;6.640;2023-09-12T09:14:33;21.60;99.90
40589;DHT22;26297;49.450;6.640;2023-09-12T09:17:39;21.60;99.90
40589;DHT22;26297;49.450;6.640;2023-09-12T09:20:45;21.60;99.90
40589;DHT22;26297;49.450;6.640;2023-09-12T09:23:54;21.60;99.90
40589;DHT22;26297;49.450;6.640;2023-09-12T09:26:57;21.60;99.90
40589;DHT22;26297;49.450;6.640;2023-09-12T09:30:03;21.60;99.90
40589;DHT22;26297;49.450;6.640;2023-09-12T09:33:33;21.60;99.90
40589;DHT22;26297;49.450;6.640;2023-09-12T09:37:02;21.60;99.90
40589;DHT22;26297;49.450;6.640;2023-09-12T09:40:09;21.50;99.90
40589;DHT22;26297;49.450;6.640;2023-09-12T09:43:21;21.60;99.90
40589;DHT22;26297;49.450;6.640;2023-09-12T09:46:40;21.70;99.90
40589;DHT22;26297;49.450;6.640;2023-09-12T09:49:51;21.70;99.90
40589;DHT22;26297;49.450;6.640;2023-09-12T09:52:58;21.70;99.90
40589;DHT22;26297;49.450;6.640;2023-09-12T09:56:10;21.70;99.90
40589;DHT22;26297;49.450;6.640;2023-09-12T09:59:16;21.70;99.90
40589;DHT22;26297;49.450;6.640;2023-09-12T10:02:41;21.70;99.90
40589;DHT22;26297;49.450;6.640;2023-09-12T10:05:46;21.70;99.90
40589;DHT22;26297;49.450;6.640;2023-09-12T10:09:09;21.80;99.90
40589;DHT22;26297;49.450;6.640;2023-09-12T10:12:16;21.70;99.90
40589;DHT22;26297;49.450;6.640;2023-09-12T10:15:19;21.70;99.90
40589;DHT22;26297;49.450;6.640;2023-09-12T10:18:24;21.70;99.90
40589;DHT22;26297;49.450;6.640;2023-09-12T10:21:30;21.70;99.90
40589;DHT22;26297;49.450;6.640;2023-09-12T10:24:36;21.80;99.90
40589;DHT22;26297;49.450;6.640;2023-09-12T10:27:40;21.80;99.90
40589;DHT22;26297;49.450;6.640;2023-09-12T10:30:44;21.90;99.90
40589;DHT22;26297;49.450;6.640;2023-09-12T10:33:47;21.90;99.90
40589;DHT22;26297;49.450;6.640;2023-09-12T10:36:52;21.90;99.90
40589;DHT22;26297;49.450;6.640;2023-09-12T10:39:56;21.90;99.90
40589;DHT22;26297;49.450;6.640;2023-09-12T10:42:59;21.90;99.90
40589;DHT22;26297;49.450;6.640;2023-09-12T10:46:03;21.90;99.90
40589;DHT22;26297;49.450;6.640;2023-09-12T10:49:10;22.00;99.90
40589;DHT22;26297;49.450;6.640;2023-09-12T10:52:26;22.00;99.90
40589;DHT22;26297;49.450;6.640;2023-09-12T10:55:29;22.00;99.90
40589;DHT22;26297;49.450;6.640;2023-09-12T10:58:32;22.00;99.90
40589;DHT22;26297;49.450;6.640;2023-09-12T11:01:36;22.10;99.90
40589;DHT22;26297;49.450;6.640;2023-09-12T11:04:42;22.10;99.90
40589;DHT22;26297;49.450;6.640;2023-09-12T11:07:45;22.10;99.90
40589;DHT22;26297;49.450;6.640;2023-09-12T11:14:10;22.10;99.90
40589;DHT22;26297;49.450;6.640;2023-09-12T11:17:20;22.10;99.90
40589;DHT22;26297;49.450;6.640;2023-09-12T11:20:24;22.10;99.90
40589;DHT22;26297;49.450;6.640;2023-09-12T11:23:27;22.20;99.90
40589;DHT22;26297;49.450;6.640;2023-09-12T11:26:33;22.20;99.90
40589;DHT22;26297;49.450;6.640;2023-09-12T11:29:37;22.20;99.90
40589;DHT22;26297;49.450;6.640;2023-09-12T11:32:56;22.20;99.90
40589;DHT22;26297;49.450;6.640;2023-09-12T11:36:02;22.20;99.90
40589;DHT22;26297;49.450;6.640;2023-09-12T11:39:22;22.30;99.90
40589;DHT22;26297;49.450;6.640;2023-09-12T11:42:28;22.30;99.90
40589;DHT22;26297;49.450;6.640;2023-09-12T11:45:36;22.30;99.90
40589;DHT22;26297;49.450;6.640;2023-09-12T11:48:47;22.30;99.90
40589;DHT22;26297;49.450;6.640;2023-09-12T11:51:57;22.20;99.90
40589;DHT22;26297;49.450;6.640;2023-09-12T11:55:21;22.20;99.90
40589;DHT22;26297;49.450;6.640;2023-09-12T11:58:27;22.10;99.90
40589;DHT22;26297;49.450;6.640;2023-09-12T12:01:33;22.10;99.90
40589;DHT22;26297;49.450;6.640;2023-09-12T12:04:40;22.00;99.90
40589;DHT22;26297;49.450;6.640;2023-09-12T12:07:46;22.00;99.90
40589;DHT22;26297;49.450;6.640;2023-09-12T12:10:57;22.00;99.90
40589;DHT22;26297;49.450;6.640;2023-09-12T12:14:26;22.10;99.90
40589;DHT22;26297;49.450;6.640;2023-09-12T12:24:13;22.30;99.90
40589;DHT22;26297;49.450;6.640;2023-09-12T12:31:02;22.30;99.90
40589;DHT22;26297;49.450;6.640;2023-09-12T12:37:56;22.30;99.90
40589;DHT22;26297;49.450;6.640;2023-09-12T12:41:02;22.20;99.90
40589;DHT22;26297;49.450;6.640;2023-09-12T12:44:07;22.10;99.90
40589;DHT22;26297;49.450;6.640;2023-09-12T12:47:30;22.10;99.90
40589;DHT22;26297;49.450;6.640;2023-09-12T12:50:38;22.10;99.90
40589;DHT22;26297;49.450;6.640;2023-09-12T12:53:46;22.10;99.90
40589;DHT22;26297;49.450;6.640;2023-09-12T12:56:58;22.00;99.90
40589;DHT22;26297;49.450;6.640;2023-09-12T13:00:08;22.10;99.90
40589;DHT22;26297;49.450;6.640;2023-09-12T13:07:03;22.20;99.90
40589;DHT22;26297;49.450;6.640;2023-09-12T13:10:07;22.20;99.90
40589;DHT22;26297;49.450;6.640;2023-09-12T13:13:11;22.30;99.90
40589;DHT22;26297;49.450;6.640;2023-09-12T13:16:14;22.30;99.90
40589;DHT22;26297;49.450;6.640;2023-09-12T13:19:18;22.20;99.90
40589;DHT22;26297;49.450;6.640;2023-09-12T13:22:21;22.10;99.90
40589;DHT22;26297;49.450;6.640;2023-09-12T13:25:24;22.10;99.90
40589;DHT22;26297;49.450;6.640;2023-09-12T13:28:27;22.10;99.90
40589;DHT22;26297;49.450;6.640;2023-09-12T13:31:38;22.20;99.90
40589;DHT22;26297;49.450;6.640;2023-09-12T13:34:41;22.10;99.90
40589;DHT22;26297;49.450;6.640;2023-09-12T13:37:47;22.20;99.90
40589;DHT22;26297;49.450;6.640;2023-09-12T13:40:54;22.20;99.90
40589;DHT22;26297;49.450;6.640;2023-09-12T13:44:00;22.20;99.90
40589;DHT22;26297;49.450;6.640;2023-09-12T13:47:03;22.20;99.90
40589;DHT22;26297;49.450;6.640;2023-09-12T13:50:12;22.20;99.90
40589;DHT22;26297;49.450;6.640;2023-09-12T13:53:15;22.20;99.90
40589;DHT22;26297;49.450;6.640;2023-09-12T13:56:36;22.30;99.90
40589;DHT22;26297;49.450;6.640;2023-09-12T13:59:42;22.40;99.90
40589;DHT22;26297;49.450;6.640;2023-09-12T14:02:51;22.50;99.90
40589;DHT22;26297;49.450;6.640;2023-09-12T14:05:54;22.60;99.90
40589;DHT22;26297;49.450;6.640;2023-09-12T14:08:57;22.60;99.90
40589;DHT22;26297;49.450;6.640;2023-09-12T14:12:02;22.70;99.90
40589;DHT22;26297;49.450;6.640;2023-09-12T14:15:06;22.80;99.90
40589;DHT22;26297;49.450;6.640;2023-09-12T14:18:10;22.80;99.90
40589;DHT22;26297;49.450;6.640;2023-09-12T14:21:21;22.80;99.90
40589;DHT22;26297;49.450;6.640;2023-09-12T15:28:10;22.90;99.90
40589;DHT22;26297;49.450;6.640;2023-09-12T15:31:13;22.90;99.90
40589;DHT22;26297;49.450;6.640;2023-09-12T15:34:16;22.90;99.90
40589;DHT22;26297;49.450;6.640;2023-09-12T15:37:25;22.80;99.90
40589;DHT22;26297;49.450;6.640;2023-09-12T15:40:32;22.80;99.90
40589;DHT22;26297;49.450;6.640;2023-09-12T15:43:35;22.70;99.90
40589;DHT22;26297;49.450;6.640;2023-09-12T15:46:46;22.60;99.90
40589;DHT22;26297;49.450;6.640;2023-09-12T15:49:49;22.50;99.90
40589;DHT22;26297;49.450;6.640;2023-09-12T15:52:52;22.50;99.90
40589;DHT22;26297;49.450;6.640;2023-09-12T15:55:55;22.40;99.90
40589;DHT22;26297;49.450;6.640;2023-09-12T15:58:58;22.30;99.90
40589;DHT22;26297;49.450;6.640;2023-09-12T16:02:01;22.30;99.90
40589;DHT22;26297;49.450;6.640;2023-09-12T16:05:05;22.30;99.90
40589;DHT22;26297;49.450;6.640;2023-09-12T16:08:08;22.20;99.90
40589;DHT22;26297;49.450;6.640;2023-09-12T16:11:11;22.20;99.90
40589;DHT22;26297;49.450;6.640;2023-09-12T16:14:17;22.20;99.90
40589;DHT22;26297;49.450;6.640;2023-09-12T16:17:30;22.20;99.90
40589;DHT22;26297;49.450;6.640;2023-09-12T16:20:40;22.20;99.90
40589;DHT22;26297;49.450;6.640;2023-09-12T16:23:47;22.20;99.90
40589;DHT22;26297;49.450;6.640;2023-09-12T16:26:50;22.20;99.90
40589;DHT22;26297;49.450;6.640;2023-09-12T16:29:55;22.20;99.90
40589;DHT22;26297;49.450;6.640;2023-09-12T16:32:59;22.20;99.90
40589;DHT22;26297;49.450;6.640;2023-09-12T16:36:04;22.20;99.90
40589;DHT22;26297;49.450;6.640;2023-09-12T16:39:07;22.20;99.90
40589;DHT22;26297;49.450;6.640;2023-09-12T16:42:10;22.30;99.90
40589;DHT22;26297;49.450;6.640;2023-09-12T16:45:14;22.30;99.90
40589;DHT22;26297;49.450;6.640;2023-09-12T16:48:17;22.50;99.90
40589;DHT22;26297;49.450;6.640;2023-09-12T16:55:09;22.50;99.90
40589;DHT22;26297;49.450;6.640;2023-09-12T16:58:13;22.50;99.90
40589;DHT22;26297;49.450;6.640;2023-09-12T17:01:16;22.50;99.90
40589;DHT22;26297;49.450;6.640;2023-09-12T17:04:19;22.50;99.90
40589;DHT22;26297;49.450;6.640;2023-09-12T17:11:19;22.40;99.90
40589;DHT22;26297;49.450;6.640;2023-09-12T17:14:52;22.40;99.90
40589;DHT22;26297;49.450;6.640;2023-09-12T17:18:07;22.30;99.90
40589;DHT22;26297;49.450;6.640;2023-09-12T17:21:10;22.40;99.90
40589;DHT22;26297;49.450;6.640;2023-09-12T17:24:13;22.30;99.90
40589;DHT22;26297;49.450;6.640;2023-09-12T17:27:16;22.30;99.90
40589;DHT22;26297;49.450;6.640;2023-09-12T17:30:19;22.30;99.90
40589;DHT22;26297;49.450;6.640;2023-09-12T17:33:24;22.30;99.90
40589;DHT22;26297;49.450;6.640;2023-09-12T17:36:28;22.20;99.90
40589;DHT22;26297;49.450;6.640;2023-09-12T17:39:33;22.20;99.90
40589;DHT22;26297;49.450;6.640;2023-09-12T17:42:36;22.10;99.90
40589;DHT22;26297;49.450;6.640;2023-09-12T17:45:39;22.00;99.90
40589;DHT22;26297;49.450;6.640;2023-09-12T17:48:42;22.00;99.90
40589;DHT22;26297;49.450;6.640;2023-09-12T17:51:46;22.00;99.90
40589;DHT22;26297;49.450;6.640;2023-09-12T17:54:49;22.00;99.90
40589;DHT22;26297;49.450;6.640;2023-09-12T17:57:52;22.00;99.90
40589;DHT22;26297;49.450;6.640;2023-09-12T18:00:58;22.00;99.90
40589;DHT22;26297;49.450;6.640;2023-09-12T18:04:02;21.90;99.90
40589;DHT22;26297;49.450;6.640;2023-09-12T18:07:07;22.00;99.90
40589;DHT22;26297;49.450;6.640;2023-09-12T18:10:10;21.90;99.90
40589;DHT22;26297;49.450;6.640;2023-09-12T18:17:08;21.90;99.90
40589;DHT22;26297;49.450;6.640;2023-09-12T18:20:14;21.90;99.90
40589;DHT22;26297;49.450;6.640;2023-09-12T18:23:17;21.90;99.90
40589;DHT22;26297;49.450;6.640;2023-09-12T18:26:20;21.90;99.90
40589;DHT22;26297;49.450;6.640;2023-09-12T18:29:24;21.90;99.90
40589;DHT22;26297;49.450;6.640;2023-09-12T18:32:27;22.00;99.90
40589;DHT22;26297;49.450;6.640;2023-09-12T18:35:30;22.00;99.90
40589;DHT22;26297;49.450;6.640;2023-09-12T18:38:37;22.00;99.90
40589;DHT22;26297;49.450;6.640;2023-09-12T18:41:43;22.00;99.90
40589;DHT22;26297;49.450;6.640;2023-09-12T18:44:53;21.90;99.90
40589;DHT22;26297;49.450;6.640;2023-09-12T18:51:49;21.60;99.90
40589;DHT22;26297;49.450;6.640;2023-09-12T18:55:01;21.60;99.90
40589;DHT22;26297;49.450;6.640;2023-09-12T18:58:10;21.60;99.90
40589;DHT22;26297;49.450;6.640;2023-09-12T19:01:19;21.60;99.90
40589;DHT22;26297;49.450;6.640;2023-09-12T19:04:28;21.70;99.90
40589;DHT22;26297;49.450;6.640;2023-09-12T19:08:06;21.70;99.90
40589;DHT22;26297;49.450;6.640;2023-09-12T19:11:33;21.60;99.90
40589;DHT22;26297;49.450;6.640;2023-09-12T19:15:03;21.60;99.90
40589;DHT22;26297;49.450;6.640;2023-09-12T19:18:30;21.70;99.90
40589;DHT22;26297;49.450;6.640;2023-09-12T19:21:36;21.60;99.90
40589;DHT22;26297;49.450;6.640;2023-09-12T19:24:47;21.60;99.90
40589;DHT22;26297;49.450;6.640;2023-09-12T19:28:18;21.60;99.90
40589;DHT22;26297;49.450;6.640;2023-09-12T19:31:23;21.60;99.90
40589;DHT22;26297;49.450;6.640;2023-09-12T19:34:52;21.70;99.90
40589;DHT22;26297;49.450;6.640;2023-09-12T19:38:02;21.60;99.90
40589;DHT22;26297;49.450;6.640;2023-09-12T19:41:08;21.60;99.90
40589;DHT22;26297;49.450;6.640;2023-09-12T19:44:17;21.60;99.90
40589;DHT22;26297;49.450;6.640;2023-09-12T19:47:32;21.50;99.90
40589;DHT22;26297;49.450;6.640;2023-09-12T19:50:43;21.50;99.90
40589;DHT22;26297;49.450;6.640;2023-09-12T19:54:27;21.60;99.90
40589;DHT22;26297;49.450;6.640;2023-09-12T20:01:30;21.60;99.90
40589;DHT22;26297;49.450;6.640;2023-09-12T20:04:53;21.60;99.90
40589;DHT22;26297;49.450;6.640;2023-09-12T20:08:19;21.60;99.90
40589;DHT22;26297;49.450;6.640;2023-09-12T20:11:25;21.60;99.90
40589;DHT22;26297;49.450;6.640;2023-09-12T20:14:31;21.60;99.90
40589;DHT22;26297;49.450;6.640;2023-09-12T20:25:01;21.50;99.90
40589;DHT22;26297;49.450;6.640;2023-09-12T20:28:09;21.50;99.90
40589;DHT22;26297;49.450;6.640;2023-09-12T20:35:08;21.50;99.90
40589;DHT22;26297;49.450;6.640;2023-09-12T20:38:11;21.50;99.90
40589;DHT22;26297;49.450;6.640;2023-09-12T20:41:33;21.50;99.90
40589;DHT22;26297;49.450;6.640;2023-09-12T20:44:52;21.50;99.90
40589;DHT22;26297;49.450;6.640;2023-09-12T20:47:56;21.50;99.90
40589;DHT22;26297;49.450;6.640;2023-09-12T20:51:16;21.40;99.90
40589;DHT22;26297;49.450;6.640;2023-09-12T20:54:22;21.30;99.90
40589;DHT22;26297;49.450;6.640;2023-09-12T22:00:39;20.80;99.90
40589;DHT22;26297;49.450;6.640;2023-09-12T23:04:44;20.70;99.90
40589;DHT22;26297;49.450;6.640;2023-09-12T23:11:42;20.50;99.90
40589;DHT22;26297;49.450;6.640;2023-09-12T23:15:06;20.60;99.90
40589;DHT22;26297;49.450;6.640;2023-09-12T23:22:07;20.60;99.90
40589;DHT22;26297;49.450;6.640;2023-09-12T23:25:24;20.50;99.90
40589;DHT22;26297;49.450;6.640;2023-09-12T23:28:48;20.60;99.90
40589;DHT22;26297;49.450;6.640;2023-09-12T23:32:11;20.60;99.90
40589;DHT22;26297;49.450;6.640;2023-09-12T23:35:35;20.60;99.90
40589;DHT22;26297;49.450;6.640;2023-09-12T23:38:52;20.60;99.90
40589;DHT22;26297;49.450;6.640;2023-09-12T23:42:15;20.60;99.90
40589;DHT22;26297;49.450;6.640;2023-09-12T23:45:33;20.60;99.90
40589;DHT22;26297;49.450;6.640;2023-09-12T23:48:40;20.60;99.90
40589;DHT22;26297;49.450;6.640;2023-09-12T23:55:34;20.60;99.90
40589;DHT22;26297;49.450;6.640;2023-09-12T23:58:43;20.60;99.90
